createdAt,value
2018-12-30T00:02:29.149Z,8.03
2018-12-30T00:03:08.350Z,8.03
2018-12-30T00:04:07.761Z,8.09
2018-12-30T00:05:10.482Z,8.17
2018-12-30T00:11:32.587Z,8.22
2018-12-30T00:14:20.054Z,8.21
2018-12-30T00:15:20.263Z,8.24
2018-12-30T00:17:41.864Z,8.14
2018-12-30T00:36:02.702Z,8.02
2018-12-30T00:40:25.932Z,7.92
2018-12-30T00:45:14.284Z,8.00
2018-12-30T01:05:42.343Z,7.96
2018-12-30T01:06:40.826Z,7.92
2018-12-30T01:07:41.156Z,7.94
2018-12-30T01:08:40.802Z,7.94
2018-12-30T01:13:43.295Z,8.03
2018-12-30T01:20:58.307Z,7.99
2018-12-30T01:28:20.629Z,7.99
2018-12-30T01:29:23.266Z,7.95
2018-12-30T01:30:30.184Z,7.96
2018-12-30T01:31:23.791Z,7.92
2018-12-30T01:39:27.988Z,7.96
2018-12-30T01:48:22.958Z,8.04
2018-12-30T01:51:43.935Z,7.94
2018-12-30T01:54:39.725Z,7.89
2018-12-30T01:55:33.976Z,7.99
2018-12-30T01:58:01.819Z,7.99
2018-12-30T01:59:01.417Z,7.86
2018-12-30T02:01:36.665Z,7.99
2018-12-30T02:05:00.685Z,7.96
2018-12-30T02:06:05.774Z,7.85
2018-12-30T02:07:03.338Z,7.88
2018-12-30T02:10:01.384Z,7.99
2018-12-30T02:30:51.140Z,8.02
2018-12-30T02:39:08.665Z,7.94
2018-12-30T02:40:09.991Z,7.95
2018-12-30T02:41:08.324Z,7.92
2018-12-30T02:42:08.053Z,7.95
2018-12-30T02:43:08.227Z,8.06
2018-12-30T02:44:08.047Z,7.95
2018-12-30T02:45:08.864Z,7.95
2018-12-30T02:46:08.895Z,8.00
2018-12-30T02:48:52.888Z,8.04
2018-12-30T02:49:53.107Z,8.06
2018-12-30T02:52:44.483Z,8.07
2018-12-30T02:53:45.215Z,7.96
2018-12-30T02:54:35.336Z,7.94
2018-12-30T02:55:35.380Z,7.92
2018-12-30T02:56:36.295Z,7.95
2018-12-30T02:57:35.280Z,7.92
2018-12-30T02:58:35.302Z,8.06
2018-12-30T02:59:40.811Z,8.02
2018-12-30T03:00:35.442Z,8.02
2018-12-30T03:01:35.319Z,8.07
2018-12-30T03:02:35.311Z,7.95
2018-12-30T03:03:35.232Z,7.95
2018-12-30T03:06:12.307Z,8.00
2018-12-30T03:07:11.415Z,7.89
2018-12-30T03:08:10.482Z,7.89
2018-12-30T03:09:10.239Z,7.92
2018-12-30T03:10:10.342Z,8.03
2018-12-30T03:11:10.185Z,7.99
2018-12-30T03:15:15.823Z,7.94
2018-12-30T03:20:52.303Z,7.92
2018-12-30T03:23:53.624Z,7.91
2018-12-30T03:30:54.524Z,7.82
2018-12-30T03:31:54.285Z,7.74
2018-12-30T03:32:54.613Z,7.77
2018-12-30T03:38:55.445Z,7.76
2018-12-30T03:39:55.302Z,7.70
2018-12-30T03:40:55.318Z,7.71
2018-12-30T03:41:55.459Z,7.76
2018-12-30T03:42:55.890Z,7.71
2018-12-30T03:43:54.908Z,7.70
2018-12-30T03:46:40.587Z,7.74
2018-12-30T03:47:45.628Z,7.71
2018-12-30T03:48:40.686Z,7.73
2018-12-30T03:51:04.591Z,7.74
2018-12-30T03:52:08.655Z,7.70
2018-12-30T03:58:10.715Z,7.71
2018-12-30T03:59:06.057Z,7.73
2018-12-30T04:19:39.060Z,7.67
2018-12-30T04:34:56.240Z,7.57
2018-12-30T04:42:41.759Z,7.55
2018-12-30T04:43:40.717Z,7.48
2018-12-30T04:50:24.180Z,7.45
2018-12-30T04:50:55.405Z,7.42
2018-12-30T05:07:57.775Z,7.50
2018-12-30T05:16:33.521Z,7.50
2018-12-30T05:20:06.130Z,7.47
2018-12-30T05:28:06.779Z,7.57
2018-12-30T05:30:50.938Z,7.60
2018-12-30T05:38:36.992Z,7.57
2018-12-30T05:50:06.204Z,7.45
2018-12-30T05:50:59.749Z,7.52
2018-12-30T05:54:21.083Z,7.44
2018-12-30T06:03:47.531Z,7.45
2018-12-30T06:04:47.156Z,7.50
2018-12-30T06:05:47.557Z,7.51
2018-12-30T07:43:18.592Z,7.01
2018-12-30T07:50:52.398Z,6.96
2018-12-30T07:55:13.964Z,6.87
2018-12-30T08:23:29.867Z,6.91
2018-12-30T08:34:32.048Z,6.99
2018-12-30T08:39:26.947Z,7.11
2018-12-30T08:40:26.731Z,7.12
2018-12-30T08:41:26.689Z,7.16
2018-12-30T08:42:26.747Z,7.09
2018-12-30T08:48:14.258Z,7.21
2018-12-30T08:49:23.514Z,7.18
2018-12-30T08:50:16.875Z,7.27
2018-12-30T08:51:14.520Z,7.29
2018-12-30T08:52:14.366Z,7.30
2018-12-30T08:55:45.078Z,7.36
2018-12-30T08:56:45.118Z,7.34
2018-12-30T08:57:44.789Z,7.26
2018-12-30T08:58:44.806Z,7.32
2018-12-30T08:59:44.711Z,7.32
2018-12-30T09:00:44.653Z,7.39
2018-12-30T09:01:44.662Z,7.44
2018-12-30T09:02:44.716Z,7.33
2018-12-30T09:03:44.632Z,7.41
2018-12-30T09:04:44.653Z,7.41
2018-12-30T09:05:44.652Z,7.41
2018-12-30T09:07:55.730Z,7.36
2018-12-30T09:08:55.526Z,7.47
2018-12-30T09:09:56.058Z,7.36
2018-12-30T09:10:55.367Z,7.52
2018-12-30T09:11:55.041Z,7.47
2018-12-30T09:12:55.026Z,7.37
2018-12-30T09:14:06.931Z,7.36
2018-12-30T09:14:55.114Z,7.52
2018-12-30T09:15:55.287Z,7.47
2018-12-30T09:16:55.199Z,7.51
2018-12-30T09:17:55.025Z,7.51
2018-12-30T09:18:54.979Z,7.52
2018-12-30T09:19:54.986Z,7.54
2018-12-30T09:22:23.084Z,7.48
2018-12-30T09:23:22.643Z,7.48
2018-12-30T09:24:26.226Z,7.47
2018-12-30T09:25:22.511Z,7.45
2018-12-30T09:26:22.463Z,7.51
2018-12-30T09:27:22.483Z,7.48
2018-12-30T09:28:22.512Z,7.48
2018-12-30T09:29:22.434Z,7.47
2018-12-30T09:40:18.429Z,7.58
2018-12-30T09:51:44.934Z,7.70
2018-12-30T09:52:40.861Z,7.69
2018-12-30T09:53:45.088Z,7.70
2018-12-30T09:54:40.875Z,7.73
2018-12-30T09:55:53.822Z,7.77
2018-12-30T09:56:40.508Z,7.81
2018-12-30T10:13:29.251Z,7.95
2018-12-30T10:14:37.455Z,7.96
2018-12-30T10:15:38.461Z,7.89
2018-12-30T10:16:28.684Z,7.92
2018-12-30T10:18:51.071Z,8.03
2018-12-30T10:20:00.468Z,7.99
2018-12-30T10:20:50.508Z,7.96
2018-12-30T10:22:16.885Z,7.96
2018-12-30T10:22:58.574Z,7.95
2018-12-30T10:25:17.562Z,8.07
2018-12-30T10:31:43.633Z,7.85
2018-12-30T10:32:45.437Z,7.99
2018-12-30T10:33:44.184Z,7.89
2018-12-30T10:34:43.043Z,7.88
2018-12-30T10:35:43.074Z,8.03
2018-12-30T10:37:37.035Z,7.99
2018-12-30T10:39:53.862Z,7.92
2018-12-30T10:40:53.814Z,8.03
2018-12-30T10:41:54.146Z,8.09
2018-12-30T10:42:53.460Z,8.06
2018-12-30T10:43:53.369Z,8.06
2018-12-30T10:44:56.207Z,7.96
2018-12-30T10:45:55.123Z,7.96
2018-12-30T10:46:53.372Z,7.95
2018-12-30T10:47:53.692Z,8.02
2018-12-30T10:51:21.194Z,8.00
2018-12-30T11:08:33.913Z,8.13
2018-12-30T11:11:56.180Z,8.17
2018-12-30T11:12:54.773Z,8.17
2018-12-30T11:13:54.601Z,8.25
2018-12-30T11:14:54.707Z,8.25
2018-12-30T11:15:54.721Z,8.22
2018-12-30T11:24:24.370Z,8.46
2018-12-30T11:25:23.220Z,8.46
2018-12-30T11:27:26.504Z,8.42
2018-12-30T11:28:32.699Z,8.34
2018-12-30T11:30:54.527Z,8.36
2018-12-30T11:31:41.355Z,8.39
2018-12-30T11:32:41.371Z,8.43
2018-12-30T11:33:40.848Z,8.36
2018-12-30T11:34:40.891Z,8.42
2018-12-30T11:35:40.102Z,8.34
2018-12-30T11:36:40.326Z,8.37
2018-12-30T11:37:41.769Z,8.37
2018-12-30T11:40:54.998Z,8.32
2018-12-30T11:41:49.467Z,8.36
2018-12-30T11:42:49.297Z,8.29
2018-12-30T11:43:49.274Z,8.32
2018-12-30T11:44:49.301Z,8.28
2018-12-30T11:45:49.850Z,8.28
2018-12-30T11:46:49.326Z,8.31
2018-12-30T11:47:49.370Z,8.28
2018-12-30T11:48:49.277Z,8.29
2018-12-30T11:49:49.499Z,8.24
2018-12-30T11:50:49.196Z,8.25
2018-12-30T11:51:49.238Z,8.27
2018-12-30T11:52:50.288Z,8.29
2018-12-30T11:54:02.791Z,8.28
2018-12-30T11:56:07.540Z,8.31
2018-12-30T11:57:07.705Z,8.36
2018-12-30T11:58:07.351Z,8.40
2018-12-30T11:59:08.994Z,8.37
2018-12-30T12:01:29.243Z,8.36
2018-12-30T12:02:29.845Z,8.39
2018-12-30T12:03:29.418Z,8.34
2018-12-30T12:04:29.546Z,8.31
2018-12-30T12:05:31.460Z,8.39
2018-12-30T12:06:28.888Z,8.36
2018-12-30T12:09:02.080Z,8.37
2018-12-30T12:10:01.792Z,8.40
2018-12-30T12:11:01.777Z,8.49
2018-12-30T12:12:01.438Z,8.45
2018-12-30T12:13:01.333Z,8.50
2018-12-30T12:14:01.291Z,8.43
2018-12-30T12:16:22.893Z,8.43
2018-12-30T12:17:23.247Z,8.40
2018-12-30T12:18:22.158Z,8.45
2018-12-30T12:31:03.324Z,8.52
2018-12-30T12:33:15.013Z,8.40
2018-12-30T12:37:23.128Z,8.46
2018-12-30T12:38:24.725Z,8.43
2018-12-30T12:39:22.845Z,8.36
2018-12-30T12:40:21.870Z,8.47
2018-12-30T12:41:21.773Z,8.43
2018-12-30T12:42:21.781Z,8.40
2018-12-30T12:54:44.763Z,8.39
2018-12-30T12:58:13.420Z,8.34
2018-12-30T12:59:13.305Z,8.34
2018-12-30T13:00:13.339Z,8.29
2018-12-30T13:01:13.764Z,8.29
2018-12-30T13:02:13.065Z,8.29
2018-12-30T13:03:24.771Z,8.36
2018-12-30T13:04:13.530Z,8.27
2018-12-30T13:05:14.827Z,8.28
2018-12-30T13:06:13.678Z,8.39
2018-12-30T13:07:12.964Z,8.32
2018-12-30T13:08:13.127Z,8.45
2018-12-30T13:09:17.748Z,8.32
2018-12-30T13:10:13.365Z,8.36
2018-12-30T13:11:12.897Z,8.32
2018-12-30T13:12:12.895Z,8.34
2018-12-30T13:13:12.901Z,8.34
2018-12-30T13:14:12.863Z,8.31
2018-12-30T13:15:12.852Z,8.40
2018-12-30T13:16:12.972Z,8.34
2018-12-30T13:17:12.834Z,8.36
2018-12-30T13:18:12.850Z,8.36
2018-12-30T13:19:12.805Z,8.39
2018-12-30T13:20:12.910Z,8.36
2018-12-30T13:21:12.825Z,8.40
2018-12-30T13:22:13.155Z,8.37
2018-12-30T13:23:12.795Z,8.34
2018-12-30T13:24:13.222Z,8.34
2018-12-30T13:25:12.813Z,8.42
2018-12-30T13:26:13.672Z,8.40
2018-12-30T13:27:12.850Z,8.34
2018-12-30T13:28:12.715Z,8.36
2018-12-30T13:29:12.749Z,8.31
2018-12-30T13:30:12.747Z,8.42
2018-12-30T13:31:12.701Z,8.36
2018-12-30T13:32:13.680Z,8.42
2018-12-30T13:33:12.934Z,8.37
2018-12-30T13:34:13.178Z,8.34
2018-12-30T13:35:12.661Z,8.40
2018-12-30T13:36:12.676Z,8.36
2018-12-30T13:37:12.637Z,8.32
2018-12-30T13:38:12.642Z,8.37
2018-12-30T13:39:12.635Z,8.36
2018-12-30T13:40:12.906Z,8.40
2018-12-30T13:41:12.642Z,8.39
2018-12-30T13:42:12.693Z,8.36
2018-12-30T13:43:12.581Z,8.31
2018-12-30T13:48:40.755Z,8.40
2018-12-30T13:49:40.083Z,8.42
2018-12-30T14:23:01.943Z,8.31
2018-12-30T14:29:57.490Z,8.27
2018-12-30T14:33:01.219Z,8.31
2018-12-30T15:10:53.087Z,8.06
2018-12-30T15:13:13.132Z,8.14
2018-12-30T15:14:11.477Z,8.13
2018-12-30T15:15:14.324Z,8.09
2018-12-30T15:16:11.255Z,8.07
2018-12-30T15:17:16.219Z,8.07
2018-12-30T15:19:40.770Z,8.10
2018-12-30T15:22:01.393Z,8.04
2018-12-30T15:23:00.685Z,8.14
2018-12-30T15:24:00.645Z,8.09
2018-12-30T15:25:00.661Z,8.09
2018-12-30T15:26:00.519Z,8.13
2018-12-30T15:27:00.535Z,8.07
2018-12-30T15:28:00.662Z,8.10
2018-12-30T15:29:00.496Z,8.02
2018-12-30T15:30:00.521Z,8.04
2018-12-30T15:31:00.534Z,8.03
2018-12-30T15:34:45.149Z,8.03
2018-12-30T15:35:41.900Z,8.09
2018-12-30T15:36:41.386Z,8.04
2018-12-30T15:37:43.134Z,8.06
2018-12-30T15:38:41.259Z,8.13
2018-12-30T15:39:41.223Z,7.96
2018-12-30T15:40:53.462Z,8.00
2018-12-30T15:41:42.637Z,7.91
2018-12-30T15:42:42.328Z,7.94
2018-12-30T15:43:41.145Z,7.92
2018-12-30T15:44:41.108Z,8.04
2018-12-30T15:45:41.145Z,8.03
2018-12-30T15:46:41.417Z,8.03
2018-12-30T15:47:41.199Z,8.00
2018-12-30T15:48:41.069Z,7.99
2018-12-30T15:49:41.115Z,7.99
2018-12-30T15:50:41.122Z,7.94
2018-12-30T15:51:41.076Z,7.99
2018-12-30T15:52:41.042Z,7.91
2018-12-30T15:53:41.107Z,7.92
2018-12-30T15:54:41.001Z,7.95
2018-12-30T15:55:41.038Z,7.94
2018-12-30T15:56:40.947Z,7.89
2018-12-30T15:57:41.619Z,7.88
2018-12-30T15:58:40.963Z,7.88
2018-12-30T15:59:40.982Z,7.86
2018-12-30T16:00:40.921Z,7.99
2018-12-30T16:01:40.914Z,7.91
2018-12-30T16:02:40.940Z,7.91
2018-12-30T16:05:57.533Z,7.81
2018-12-30T16:06:55.091Z,7.85
2018-12-30T16:07:52.767Z,7.84
2018-12-30T16:08:51.727Z,7.85
2018-12-30T16:15:03.972Z,7.88
2018-12-30T16:16:03.045Z,7.85
2018-12-30T16:19:14.944Z,7.85
2018-12-30T16:20:14.606Z,7.84
2018-12-30T16:21:14.748Z,7.85
2018-12-30T16:22:14.578Z,7.84
2018-12-30T16:24:47.288Z,7.86
2018-12-30T16:25:46.145Z,7.77
2018-12-30T16:26:46.369Z,7.85
2018-12-30T16:29:06.575Z,7.84
2018-12-30T16:34:34.288Z,7.84
2018-12-30T16:35:34.264Z,7.82
2018-12-30T16:36:34.880Z,7.74
2018-12-30T16:43:34.733Z,7.74
2018-12-30T16:44:34.019Z,7.81
2018-12-30T16:45:34.628Z,7.76
2018-12-30T16:46:33.861Z,7.71
2018-12-30T16:47:41.620Z,7.71
2018-12-30T16:48:39.880Z,7.76
2018-12-30T16:49:33.776Z,7.70
2018-12-30T16:50:33.710Z,7.71
2018-12-30T16:53:51.679Z,7.76
2018-12-30T16:54:50.753Z,7.77
2018-12-30T16:58:28.868Z,7.73
2018-12-30T16:59:28.361Z,7.71
2018-12-30T17:00:28.522Z,7.74
2018-12-30T17:05:24.237Z,7.74
2018-12-30T17:12:09.953Z,7.79
2018-12-30T17:13:18.075Z,7.73
2018-12-30T17:14:10.866Z,7.67
2018-12-30T17:16:27.668Z,7.77
2018-12-30T17:21:53.240Z,7.76
2018-12-30T17:24:29.197Z,7.73
2018-12-30T17:25:29.571Z,7.70
2018-12-30T17:26:28.681Z,7.74
2018-12-30T17:28:39.897Z,7.70
2018-12-30T17:29:39.487Z,7.70
2018-12-30T17:30:39.464Z,7.63
2018-12-30T17:31:39.671Z,7.76
2018-12-30T17:32:39.416Z,7.62
2018-12-30T17:33:39.355Z,7.70
2018-12-30T17:34:39.401Z,7.70
2018-12-30T17:35:39.335Z,7.77
2018-12-30T17:36:39.314Z,7.74
2018-12-30T17:37:39.326Z,7.69
2018-12-30T17:38:39.324Z,7.69
2018-12-30T17:39:39.432Z,7.70
2018-12-30T17:40:39.287Z,7.63
2018-12-30T17:41:39.292Z,7.70
2018-12-30T17:42:39.257Z,7.67
2018-12-30T17:43:39.275Z,7.63
2018-12-30T17:44:39.236Z,7.70
2018-12-30T17:45:39.252Z,7.70
2018-12-30T17:46:39.270Z,7.66
2018-12-30T17:47:39.403Z,7.67
2018-12-30T17:48:39.278Z,7.69
2018-12-30T17:49:39.244Z,7.67
2018-12-30T17:50:39.179Z,7.66
2018-12-30T17:51:39.214Z,7.62
2018-12-30T17:52:39.136Z,7.67
2018-12-30T17:53:39.164Z,7.62
2018-12-30T17:54:39.196Z,7.60
2018-12-30T17:55:40.195Z,7.69
2018-12-30T17:56:39.220Z,7.70
2018-12-30T17:57:39.103Z,7.58
2018-12-30T17:58:39.081Z,7.69
2018-12-30T17:59:39.132Z,7.66
2018-12-30T18:00:39.114Z,7.69
2018-12-30T18:01:39.047Z,7.57
2018-12-30T18:02:39.161Z,7.55
2018-12-30T18:03:39.055Z,7.58
2018-12-30T18:04:39.055Z,7.55
2018-12-30T18:05:39.021Z,7.55
2018-12-30T18:06:41.554Z,7.57
2018-12-30T18:07:39.056Z,7.51
2018-12-30T18:08:39.373Z,7.42
2018-12-30T18:09:39.005Z,7.45
2018-12-30T18:10:38.940Z,7.39
2018-12-30T18:11:38.929Z,7.54
2018-12-30T18:12:38.921Z,7.51
2018-12-30T18:13:38.921Z,7.47
2018-12-30T18:14:39.547Z,7.50
2018-12-30T18:15:38.919Z,7.50
2018-12-30T18:17:50.230Z,7.39
2018-12-30T18:18:49.965Z,7.37
2018-12-30T18:19:49.938Z,7.37
2018-12-30T18:20:50.043Z,7.44
2018-12-30T18:21:49.661Z,7.39
2018-12-30T18:22:49.745Z,7.37
2018-12-30T18:26:04.539Z,7.39
2018-12-30T18:27:04.399Z,7.32
2018-12-30T18:28:04.791Z,7.26
2018-12-30T18:29:04.246Z,7.29
2018-12-30T18:30:04.329Z,7.30
2018-12-30T18:31:04.176Z,7.21
2018-12-30T18:32:04.192Z,7.30
2018-12-30T18:33:05.807Z,7.33
2018-12-30T18:34:04.205Z,7.27
2018-12-30T18:35:04.018Z,7.29
2018-12-30T18:36:04.012Z,7.27
2018-12-30T18:37:04.093Z,7.29
2018-12-30T18:38:04.367Z,7.30
2018-12-30T18:44:28.002Z,7.24
2018-12-30T18:45:27.854Z,7.21
2018-12-30T18:46:28.853Z,7.23
2018-12-30T18:47:27.451Z,7.19
2018-12-30T18:52:09.114Z,7.24
2018-12-30T18:53:09.051Z,7.16
2018-12-30T18:54:09.029Z,7.19
2018-12-30T18:55:09.562Z,7.15
2018-12-30T18:56:08.920Z,7.14
2018-12-30T18:57:08.958Z,7.23
2018-12-30T18:58:08.833Z,7.21
2018-12-30T18:59:08.819Z,7.14
2018-12-30T19:00:08.863Z,7.18
2018-12-30T19:01:08.796Z,7.18
2018-12-30T19:02:08.788Z,7.15
2018-12-30T19:03:17.761Z,7.15
2018-12-30T19:06:29.980Z,7.16
2018-12-30T19:08:39.836Z,7.16
2018-12-30T19:09:39.473Z,7.14
2018-12-30T19:10:39.369Z,7.19
2018-12-30T19:11:39.475Z,7.19
2018-12-30T19:12:39.276Z,7.18
2018-12-30T19:13:39.301Z,7.21
2018-12-30T19:14:39.254Z,7.19
2018-12-30T19:15:39.239Z,7.15
2018-12-30T19:16:39.325Z,7.16
2018-12-30T19:17:39.220Z,7.21
2018-12-30T19:18:39.353Z,7.16
2018-12-30T19:19:39.198Z,7.16
2018-12-30T19:20:39.188Z,7.14
2018-12-30T19:21:39.194Z,7.12
2018-12-30T19:22:39.186Z,7.19
2018-12-30T19:23:39.311Z,7.11
2018-12-30T19:24:42.603Z,7.16
2018-12-30T19:28:08.249Z,7.16
2018-12-30T19:30:22.773Z,7.15
2018-12-30T19:31:23.141Z,7.15
2018-12-30T19:32:22.464Z,7.09
2018-12-30T19:33:22.509Z,7.14
2018-12-30T19:34:22.258Z,7.09
2018-12-30T19:35:22.302Z,7.14
2018-12-30T19:36:22.245Z,7.14
2018-12-30T19:37:22.218Z,7.05
2018-12-30T19:38:22.200Z,7.12
2018-12-30T19:39:22.158Z,7.15
2018-12-30T19:40:22.224Z,7.08
2018-12-30T19:41:22.108Z,7.09
2018-12-30T19:42:22.527Z,7.01
2018-12-30T19:43:22.097Z,7.11
2018-12-30T19:44:22.076Z,7.07
2018-12-30T19:45:22.105Z,7.11
2018-12-30T19:46:22.080Z,7.08
2018-12-30T19:47:22.195Z,7.12
2018-12-30T19:48:22.035Z,7.18
2018-12-30T19:49:22.024Z,7.14
2018-12-30T19:50:21.999Z,7.08
2018-12-30T19:51:21.988Z,7.08
2018-12-30T19:52:21.997Z,7.09
2018-12-30T19:53:22.036Z,7.11
2018-12-30T19:54:21.957Z,7.08
2018-12-30T19:55:21.973Z,7.11
2018-12-30T19:56:22.293Z,7.07
2018-12-30T19:57:21.930Z,7.08
2018-12-30T19:58:21.923Z,7.00
2018-12-30T19:59:21.926Z,7.09
2018-12-30T20:00:21.942Z,7.07
2018-12-30T20:01:21.897Z,7.05
2018-12-30T20:02:21.882Z,7.08
2018-12-30T20:03:22.021Z,7.09
2018-12-30T20:04:21.921Z,7.07
2018-12-30T20:05:21.838Z,7.07
2018-12-30T20:06:22.850Z,7.09
2018-12-30T20:07:21.897Z,7.14
2018-12-30T20:08:21.814Z,7.08
2018-12-30T20:09:21.801Z,7.08
2018-12-30T20:10:21.868Z,7.09
2018-12-30T20:11:21.832Z,7.01
2018-12-30T20:12:21.760Z,7.08
2018-12-30T20:13:21.769Z,7.07
2018-12-30T20:14:21.748Z,7.09
2018-12-30T20:15:21.756Z,7.14
2018-12-30T20:16:21.713Z,7.05
2018-12-30T20:17:21.768Z,7.01
2018-12-30T20:18:21.690Z,7.05
2018-12-30T20:19:21.679Z,7.07
2018-12-30T20:20:21.720Z,7.01
2018-12-30T20:21:22.450Z,7.09
2018-12-30T20:22:21.744Z,7.09
2018-12-30T20:23:22.118Z,7.11
2018-12-30T20:24:22.091Z,7.01
2018-12-30T20:25:22.748Z,7.08
2018-12-30T20:26:21.606Z,7.15
2018-12-30T20:27:21.830Z,7.09
2018-12-30T20:28:21.747Z,7.05
2018-12-30T20:29:21.710Z,7.08
2018-12-30T20:30:21.564Z,7.12
2018-12-30T20:31:21.553Z,7.07
2018-12-30T20:32:21.951Z,7.08
2018-12-30T20:33:21.539Z,7.14
2018-12-30T20:34:21.598Z,7.14
2018-12-30T20:35:21.595Z,7.08
2018-12-30T20:36:21.525Z,7.14
2018-12-30T20:37:21.483Z,7.01
2018-12-30T20:38:21.547Z,7.09
2018-12-30T20:39:21.502Z,7.12
2018-12-30T20:40:21.468Z,7.09
2018-12-30T20:41:21.436Z,7.14
2018-12-30T20:42:21.457Z,7.09
2018-12-30T21:53:05.906Z,7.36
2018-12-30T21:55:16.827Z,7.42
2018-12-30T21:56:16.334Z,7.39
2018-12-30T21:57:16.506Z,7.39
2018-12-30T21:58:16.122Z,7.33
2018-12-30T21:59:16.138Z,7.42
2018-12-30T22:01:17.197Z,7.37
2018-12-30T22:02:15.979Z,7.48
2018-12-30T22:03:16.007Z,7.36
2018-12-30T22:04:15.978Z,7.45
2018-12-30T22:05:16.214Z,7.51
2018-12-30T22:06:15.951Z,7.48
2018-12-30T22:07:15.959Z,7.45
2018-12-30T22:08:15.899Z,7.48
2018-12-30T22:09:15.942Z,7.47
2018-12-30T22:10:17.441Z,7.45
2018-12-30T22:11:15.967Z,7.37
2018-12-30T22:12:15.880Z,7.47
2018-12-30T22:13:15.851Z,7.51
2018-12-30T22:14:15.845Z,7.50
2018-12-30T22:15:15.915Z,7.52
2018-12-30T22:16:15.857Z,7.45
2018-12-30T22:17:15.821Z,7.45
2018-12-30T22:18:15.824Z,7.47
2018-12-30T22:19:15.861Z,7.54
2018-12-30T22:20:16.697Z,7.48
2018-12-30T22:21:15.752Z,7.39
2018-12-30T22:22:16.239Z,7.50
2018-12-30T22:23:15.748Z,7.42
2018-12-30T22:24:15.722Z,7.44
2018-12-30T22:25:15.725Z,7.51
2018-12-30T22:26:15.954Z,7.52
2018-12-30T22:27:15.696Z,7.48
2018-12-30T22:28:15.717Z,7.51
2018-12-30T22:29:15.692Z,7.55
2018-12-30T22:30:15.662Z,7.62
2018-12-30T22:31:15.690Z,7.55
2018-12-30T22:32:15.656Z,7.57
2018-12-30T22:33:15.624Z,7.51
2018-12-30T22:34:15.636Z,7.54
2018-12-30T22:35:15.721Z,7.51
2018-12-30T22:36:15.596Z,7.60
2018-12-30T22:37:15.579Z,7.51
2018-12-30T22:38:15.603Z,7.66
2018-12-30T22:39:15.611Z,7.57
2018-12-30T22:40:15.551Z,7.60
2018-12-30T22:41:15.594Z,7.58
2018-12-30T22:42:15.556Z,7.55
2018-12-30T22:43:15.523Z,7.52
2018-12-30T22:44:15.637Z,7.58
2018-12-30T22:45:15.496Z,7.69
2018-12-30T22:46:15.491Z,7.55
2018-12-30T22:47:15.492Z,7.62
2018-12-30T22:48:15.516Z,7.62
2018-12-30T22:49:15.459Z,7.55
2018-12-30T22:50:15.464Z,7.55
2018-12-30T22:51:15.430Z,7.71
2018-12-30T22:52:15.506Z,7.60
2018-12-30T22:53:15.402Z,7.62
2018-12-30T22:54:15.397Z,7.63
2018-12-30T22:55:15.382Z,7.63
2018-12-30T22:56:15.546Z,7.60
2018-12-30T22:57:24.572Z,7.69
2018-12-30T22:58:24.781Z,7.63
2018-12-30T22:59:24.094Z,7.69
2018-12-30T23:00:24.116Z,7.69
2018-12-30T23:01:15.450Z,7.60
2018-12-30T23:02:15.508Z,7.62
2018-12-30T23:03:15.439Z,7.63
2018-12-30T23:04:15.540Z,7.66
2018-12-30T23:05:15.316Z,7.66
2018-12-30T23:06:15.299Z,7.69
2018-12-30T23:07:15.289Z,7.66
2018-12-30T23:08:15.278Z,7.73
2018-12-30T23:09:15.265Z,7.67
2018-12-30T23:10:15.214Z,7.69
2018-12-30T23:11:15.229Z,7.71
2018-12-30T23:12:15.191Z,7.74
2018-12-30T23:13:15.245Z,7.74
2018-12-30T23:14:15.202Z,7.71
2018-12-30T23:15:15.218Z,7.76
2018-12-30T23:16:15.155Z,7.77
2018-12-30T23:17:15.193Z,7.71
2018-12-30T23:18:15.122Z,7.73
2018-12-30T23:19:15.120Z,7.82
2018-12-30T23:20:15.137Z,7.81
2018-12-30T23:21:15.126Z,7.76
2018-12-30T23:22:15.094Z,7.81
2018-12-30T23:23:15.133Z,7.74
2018-12-30T23:24:15.060Z,7.81
2018-12-30T23:25:15.054Z,7.77
2018-12-30T23:26:15.070Z,7.77
2018-12-30T23:27:15.044Z,7.79
2018-12-30T23:28:15.016Z,7.84
2018-12-30T23:29:15.058Z,7.84
2018-12-30T23:30:15.003Z,7.81
2018-12-30T23:31:14.986Z,7.81
2018-12-30T23:32:15.058Z,7.85
2018-12-30T23:33:14.970Z,7.79
2018-12-30T23:34:14.968Z,7.79
2018-12-30T23:35:14.940Z,7.81
2018-12-30T23:36:14.973Z,7.82
2018-12-30T23:37:14.923Z,7.84
2018-12-30T23:38:14.958Z,7.81
2018-12-30T23:39:14.904Z,7.81
2018-12-30T23:40:14.914Z,7.85
2018-12-30T23:41:14.873Z,7.81
2018-12-30T23:42:14.865Z,7.82
2018-12-30T23:43:14.894Z,7.81
2018-12-30T23:44:14.852Z,7.91
2018-12-30T23:45:14.874Z,7.82
2018-12-30T23:46:14.866Z,7.86
2018-12-30T23:47:14.802Z,7.85
2018-12-30T23:48:14.804Z,7.89
2018-12-30T23:49:14.830Z,7.91
2018-12-30T23:50:14.803Z,7.89
2018-12-30T23:51:14.824Z,7.94
2018-12-30T23:52:14.745Z,7.91
2018-12-30T23:53:14.733Z,7.81
2018-12-30T23:54:14.741Z,7.84
2018-12-30T23:55:14.742Z,7.91
2018-12-30T23:56:14.753Z,7.94
2018-12-30T23:57:14.689Z,7.96
2018-12-30T23:58:14.696Z,7.94
2018-12-30T23:59:14.675Z,7.92
